createdAt,value
2023-04-29T00:00:25.721Z,100.00
2023-04-29T00:02:53.313Z,100.00
2023-04-29T00:05:21.215Z,100.00
2023-04-29T00:07:48.752Z,100.00
2023-04-29T00:10:16.245Z,100.00
2023-04-29T00:12:43.689Z,100.00
2023-04-29T00:15:11.397Z,100.00
2023-04-29T00:17:39.481Z,100.00
2023-04-29T00:20:07.668Z,100.00
2023-04-29T00:22:38.023Z,100.00
2023-04-29T00:25:06.162Z,100.00
2023-04-29T00:27:33.562Z,100.00
2023-04-29T00:30:00.964Z,100.00
2023-04-29T00:32:28.405Z,100.00
2023-04-29T00:34:57.395Z,100.00
2023-04-29T00:37:24.845Z,100.00
2023-04-29T00:39:52.388Z,100.00
2023-04-29T00:42:20.012Z,100.00
2023-04-29T00:44:47.377Z,100.00
2023-04-29T00:47:14.809Z,100.00
2023-04-29T00:49:42.255Z,100.00
2023-04-29T00:52:11.702Z,100.00
2023-04-29T00:54:39.922Z,100.00
2023-04-29T00:57:07.582Z,100.00
2023-04-29T00:59:35.249Z,100.00
2023-04-29T01:02:04.173Z,100.00
2023-04-29T01:04:32.024Z,100.00
2023-04-29T01:06:59.392Z,100.00
2023-04-29T01:09:32.843Z,100.00
2023-04-29T01:12:29.505Z,100.00
2023-04-29T01:15:08.713Z,100.00
2023-04-29T01:17:42.667Z,100.00
2023-04-29T01:20:11.039Z,100.00
2023-04-29T01:22:39.584Z,100.00
2023-04-29T01:25:07.861Z,100.00
2023-04-29T01:27:40.995Z,100.00
2023-04-29T01:30:08.789Z,100.00
2023-04-29T01:32:54.013Z,100.00
2023-04-29T01:35:44.822Z,100.00
2023-04-29T01:38:24.540Z,100.00
2023-04-29T01:41:00.701Z,100.00
2023-04-29T01:43:31.078Z,100.00
2023-04-29T01:45:59.300Z,100.00
2023-04-29T01:48:26.925Z,100.00
2023-04-29T01:50:54.300Z,100.00
2023-04-29T01:53:21.795Z,100.00
2023-04-29T01:55:49.218Z,100.00
2023-04-29T01:58:16.642Z,100.00
2023-04-29T02:00:44.436Z,100.00
2023-04-29T02:03:12.180Z,100.00
2023-04-29T02:05:39.711Z,100.00
2023-04-29T02:08:07.788Z,100.00
2023-04-29T02:10:35.321Z,100.00
2023-04-29T02:13:03.061Z,100.00
2023-04-29T02:15:30.486Z,100.00
2023-04-29T02:17:57.868Z,100.00
2023-04-29T02:20:25.312Z,100.00
2023-04-29T02:22:52.703Z,100.00
2023-04-29T02:25:20.128Z,100.00
2023-04-29T02:27:47.549Z,100.00
2023-04-29T02:30:14.947Z,100.00
2023-04-29T02:32:42.427Z,100.00
2023-04-29T02:35:10.157Z,100.00
2023-04-29T02:37:37.528Z,100.00
2023-04-29T02:40:06.081Z,100.00
2023-04-29T02:42:33.537Z,100.00
2023-04-29T02:45:01.139Z,100.00
2023-04-29T02:47:28.560Z,100.00
2023-04-29T02:49:55.976Z,100.00
2023-04-29T02:52:23.364Z,100.00
2023-04-29T02:54:50.770Z,100.00
2023-04-29T02:57:18.456Z,100.00
2023-04-29T02:59:45.915Z,100.00
2023-04-29T03:02:13.438Z,100.00
2023-04-29T03:04:41.040Z,100.00
2023-04-29T03:07:08.839Z,100.00
2023-04-29T03:09:36.253Z,100.00
2023-04-29T03:12:03.985Z,100.00
2023-04-29T03:14:31.478Z,100.00
2023-04-29T03:16:58.993Z,100.00
2023-04-29T03:19:26.506Z,100.00
2023-04-29T03:21:54.125Z,100.00
2023-04-29T03:24:21.669Z,100.00
2023-04-29T03:26:49.055Z,100.00
2023-04-29T03:29:16.546Z,100.00
2023-04-29T03:31:44.191Z,100.00
2023-04-29T03:34:11.832Z,100.00
2023-04-29T03:36:39.285Z,100.00
2023-04-29T03:39:06.787Z,100.00
2023-04-29T03:41:34.275Z,100.00
2023-04-29T03:44:01.875Z,100.00
2023-04-29T03:46:29.493Z,100.00
2023-04-29T03:48:57.624Z,100.00
2023-04-29T03:51:25.240Z,100.00
2023-04-29T03:53:53.788Z,100.00
2023-04-29T03:56:23.018Z,100.00
2023-04-29T03:58:50.451Z,100.00
2023-04-29T04:01:17.899Z,100.00
2023-04-29T04:03:45.410Z,100.00
2023-04-29T04:06:12.886Z,100.00
2023-04-29T04:08:41.218Z,100.00
2023-04-29T04:11:09.646Z,100.00
2023-04-29T04:13:37.102Z,100.00
2023-04-29T04:16:04.725Z,100.00
2023-04-29T04:18:32.238Z,100.00
2023-04-29T04:20:59.654Z,100.00
2023-04-29T04:23:27.114Z,100.00
2023-04-29T04:25:54.506Z,100.00
2023-04-29T04:28:21.897Z,100.00
2023-04-29T04:30:49.408Z,100.00
2023-04-29T04:33:17.058Z,100.00
2023-04-29T04:35:44.502Z,100.00
2023-04-29T04:38:12.583Z,100.00
2023-04-29T04:40:43.362Z,100.00
2023-04-29T04:43:10.870Z,100.00
2023-04-29T04:45:38.299Z,100.00
2023-04-29T04:48:05.942Z,100.00
2023-04-29T04:50:33.379Z,100.00
2023-04-29T04:53:00.968Z,100.00
2023-04-29T04:55:28.450Z,100.00
2023-04-29T04:57:55.815Z,100.00
2023-04-29T05:00:23.241Z,100.00
2023-04-29T05:02:51.263Z,100.00
2023-04-29T05:05:18.825Z,100.00
2023-04-29T05:07:46.286Z,100.00
2023-04-29T05:10:13.781Z,100.00
2023-04-29T05:12:41.284Z,100.00
2023-04-29T05:15:09.084Z,100.00
2023-04-29T05:17:36.805Z,100.00
2023-04-29T05:20:04.358Z,100.00
2023-04-29T05:22:31.782Z,100.00
2023-04-29T05:25:02.989Z,100.00
2023-04-29T05:27:30.612Z,100.00
2023-04-29T05:29:58.182Z,100.00
2023-04-29T05:32:25.657Z,100.00
2023-04-29T05:34:53.063Z,100.00
2023-04-29T05:37:20.553Z,100.00
2023-04-29T05:39:47.935Z,100.00
2023-04-29T05:42:15.752Z,100.00
2023-04-29T05:44:43.144Z,100.00
2023-04-29T05:47:10.576Z,100.00
2023-04-29T05:49:38.085Z,100.00
2023-04-29T05:52:06.641Z,100.00
2023-04-29T05:54:34.557Z,100.00
2023-04-29T05:57:03.273Z,100.00
2023-04-29T05:59:31.836Z,100.00
2023-04-29T06:01:59.776Z,100.00
2023-04-29T06:04:27.865Z,100.00
2023-04-29T06:06:56.799Z,100.00
2023-04-29T06:09:27.859Z,100.00
2023-04-29T06:11:56.120Z,100.00
2023-04-29T06:14:23.657Z,100.00
2023-04-29T06:16:51.093Z,100.00
2023-04-29T06:19:19.260Z,100.00
2023-04-29T06:21:46.618Z,100.00
2023-04-29T06:24:14.045Z,100.00
2023-04-29T06:26:41.467Z,100.00
2023-04-29T06:29:09.656Z,100.00
2023-04-29T06:31:37.195Z,100.00
2023-04-29T06:34:04.728Z,100.00
2023-04-29T06:36:32.429Z,100.00
2023-04-29T06:38:59.885Z,100.00
2023-04-29T06:41:27.443Z,100.00
2023-04-29T06:43:54.856Z,100.00
2023-04-29T06:46:22.272Z,100.00
2023-04-29T06:48:49.683Z,100.00
2023-04-29T06:51:17.329Z,100.00
2023-04-29T06:53:44.663Z,100.00
2023-04-29T06:56:12.115Z,100.00
2023-04-29T06:58:39.915Z,100.00
2023-04-29T07:01:08.529Z,100.00
2023-04-29T07:03:36.084Z,100.00
2023-04-29T07:06:03.555Z,100.00
2023-04-29T07:08:31.343Z,100.00
2023-04-29T07:10:59.218Z,100.00
2023-04-29T07:13:27.209Z,100.00
2023-04-29T07:15:54.619Z,100.00
2023-04-29T07:18:22.077Z,100.00
2023-04-29T07:20:51.128Z,100.00
2023-04-29T07:23:18.526Z,100.00
2023-04-29T07:25:46.006Z,100.00
2023-04-29T07:28:13.422Z,100.00
2023-04-29T07:30:40.888Z,100.00
2023-04-29T07:33:08.371Z,100.00
2023-04-29T07:35:35.879Z,100.00
2023-04-29T07:38:03.339Z,100.00
2023-04-29T07:40:30.725Z,100.00
2023-04-29T07:42:58.072Z,100.00
2023-04-29T07:45:25.480Z,100.00
2023-04-29T07:47:52.841Z,100.00
2023-04-29T07:50:20.247Z,100.00
2023-04-29T07:52:47.619Z,100.00
2023-04-29T07:55:15.025Z,100.00
2023-04-29T07:57:42.473Z,100.00
2023-04-29T08:00:10.675Z,100.00
2023-04-29T08:02:38.302Z,100.00
2023-04-29T08:05:06.056Z,100.00
2023-04-29T08:07:33.613Z,100.00
2023-04-29T08:10:01.047Z,100.00
2023-04-29T08:12:28.502Z,100.00
2023-04-29T08:14:55.923Z,100.00
2023-04-29T08:17:23.321Z,100.00
2023-04-29T08:19:50.813Z,100.00
2023-04-29T08:22:18.280Z,100.00
2023-04-29T08:24:45.722Z,100.00
2023-04-29T08:27:13.073Z,100.00
2023-04-29T08:29:40.496Z,100.00
2023-04-29T08:32:07.982Z,100.00
2023-04-29T08:34:36.434Z,100.00
2023-04-29T08:37:04.156Z,100.00
2023-04-29T08:39:31.569Z,100.00
2023-04-29T08:41:59.905Z,100.00
2023-04-29T08:44:27.933Z,100.00
2023-04-29T08:46:55.857Z,100.00
2023-04-29T08:49:23.250Z,100.00
2023-04-29T08:51:51.606Z,100.00
2023-04-29T08:54:19.072Z,100.00
2023-04-29T08:56:47.317Z,100.00
2023-04-29T08:59:18.209Z,100.00
2023-04-29T09:01:50.518Z,100.00
2023-04-29T09:04:36.367Z,100.00
2023-04-29T09:07:04.062Z,100.00
2023-04-29T09:09:32.916Z,100.00
2023-04-29T09:12:00.538Z,100.00
2023-04-29T09:14:28.590Z,100.00
2023-04-29T09:16:56.114Z,100.00
2023-04-29T09:19:41.791Z,100.00
2023-04-29T09:22:09.322Z,100.00
2023-04-29T09:24:37.998Z,100.00
2023-04-29T09:27:05.521Z,100.00
2023-04-29T09:29:34.543Z,100.00
2023-04-29T09:32:01.964Z,100.00
2023-04-29T09:34:33.723Z,100.00
2023-04-29T09:37:01.130Z,100.00
2023-04-29T09:39:28.533Z,100.00
2023-04-29T09:41:55.935Z,100.00
2023-04-29T09:44:27.414Z,100.00
2023-04-29T09:46:58.310Z,100.00
2023-04-29T09:49:27.021Z,96.28
2023-04-29T09:51:55.313Z,98.39
2023-04-29T09:54:23.763Z,98.35
2023-04-29T09:56:51.887Z,98.30
2023-04-29T09:59:22.720Z,93.95
2023-04-29T10:01:50.981Z,94.32
2023-04-29T10:04:19.578Z,96.47
2023-04-29T10:06:49.260Z,91.25
2023-04-29T10:09:17.445Z,90.96
2023-04-29T10:11:49.292Z,87.95
2023-04-29T10:14:17.845Z,90.93
2023-04-29T10:16:49.429Z,87.85
2023-04-29T10:19:20.601Z,85.50
2023-04-29T10:21:50.061Z,84.13
2023-04-29T10:24:18.691Z,81.38
2023-04-29T10:26:48.227Z,82.05
2023-04-29T10:29:16.619Z,82.67
2023-04-29T10:31:44.712Z,83.27
2023-04-29T10:34:12.960Z,81.71
2023-04-29T10:36:40.912Z,84.38
2023-04-29T10:39:11.914Z,79.23
2023-04-29T10:41:46.917Z,77.30
2023-04-29T10:44:14.836Z,72.83
2023-04-29T10:46:42.268Z,76.64
2023-04-29T10:49:11.809Z,72.11
2023-04-29T10:51:42.913Z,66.41
2023-04-29T10:54:10.779Z,68.07
2023-04-29T10:56:38.722Z,71.42
2023-04-29T10:59:06.416Z,70.11
2023-04-29T11:01:47.031Z,65.04
2023-04-29T11:04:15.654Z,69.94
2023-04-29T11:06:47.478Z,63.20
2023-04-29T11:09:16.104Z,56.82
2023-04-29T11:11:48.950Z,55.24
2023-04-29T11:14:17.149Z,58.30
2023-04-29T11:16:52.671Z,55.72
2023-04-29T11:19:20.391Z,55.35
2023-04-29T11:21:48.200Z,56.71
2023-04-29T11:24:17.498Z,55.13
2023-04-29T11:26:46.324Z,53.20
2023-04-29T11:29:13.822Z,53.01
2023-04-29T11:31:41.590Z,52.95
2023-04-29T11:34:09.074Z,57.36
2023-04-29T11:36:37.141Z,54.14
2023-04-29T11:39:05.184Z,55.65
2023-04-29T11:41:32.737Z,52.36
2023-04-29T11:44:01.242Z,52.53
2023-04-29T11:46:31.890Z,55.62
2023-04-29T11:49:00.486Z,52.39
2023-04-29T11:51:28.562Z,54.58
2023-04-29T11:53:56.648Z,53.28
2023-04-29T11:56:25.493Z,51.88
2023-04-29T11:58:57.052Z,53.32
2023-04-29T12:01:24.550Z,51.88
2023-04-29T12:03:52.214Z,51.35
2023-04-29T12:06:19.814Z,51.64
2023-04-29T12:08:48.526Z,50.10
2023-04-29T12:11:16.292Z,54.90
2023-04-29T12:13:43.754Z,53.62
2023-04-29T12:16:11.425Z,49.13
2023-04-29T12:18:39.197Z,49.32
2023-04-29T12:21:06.714Z,48.75
2023-04-29T12:23:36.655Z,49.07
2023-04-29T12:26:04.898Z,49.00
2023-04-29T12:28:32.242Z,48.30
2023-04-29T12:31:00.294Z,45.83
2023-04-29T12:33:28.711Z,44.25
2023-04-29T12:35:59.989Z,44.43
2023-04-29T12:38:33.733Z,44.20
2023-04-29T12:41:02.089Z,43.56
2023-04-29T12:43:29.745Z,43.18
2023-04-29T12:46:04.008Z,43.78
2023-04-29T12:48:33.350Z,43.99
2023-04-29T12:51:01.771Z,42.63
2023-04-29T12:53:32.968Z,42.03
2023-04-29T12:56:00.481Z,40.92
2023-04-29T12:58:31.253Z,42.89
2023-04-29T13:00:59.314Z,40.96
2023-04-29T13:03:27.037Z,41.73
2023-04-29T13:05:55.040Z,42.83
2023-04-29T13:08:23.209Z,44.23
2023-04-29T13:10:50.920Z,40.84
2023-04-29T13:13:18.664Z,40.78
2023-04-29T13:15:46.253Z,39.95
2023-04-29T13:18:13.658Z,40.25
2023-04-29T13:20:43.510Z,40.24
2023-04-29T13:23:12.045Z,37.99
2023-04-29T13:25:39.578Z,37.23
2023-04-29T13:28:07.479Z,37.87
2023-04-29T13:30:34.926Z,38.24
2023-04-29T13:33:09.813Z,36.75
2023-04-29T13:35:41.648Z,38.22
2023-04-29T13:38:09.517Z,37.50
2023-04-29T13:40:40.806Z,37.94
2023-04-29T13:43:15.816Z,37.45
2023-04-29T13:45:52.316Z,36.42
2023-04-29T13:48:34.886Z,35.84
2023-04-29T13:54:29.261Z,36.69
2023-04-29T14:03:58.407Z,36.01
2023-04-29T14:06:28.342Z,35.35
2023-04-29T14:08:55.835Z,35.41
2023-04-29T14:11:23.348Z,33.99
2023-04-29T14:13:50.872Z,35.63
2023-04-29T14:16:18.390Z,36.91
2023-04-29T14:18:45.821Z,36.93
2023-04-29T14:21:13.723Z,37.50
2023-04-29T14:23:41.189Z,38.20
2023-04-29T14:26:22.979Z,38.06
2023-04-29T14:28:57.836Z,38.67
2023-04-29T14:31:28.085Z,39.26
2023-04-29T14:33:56.407Z,38.45
2023-04-29T14:36:24.028Z,38.43
2023-04-29T14:38:51.508Z,39.31
2023-04-29T14:41:19.045Z,39.51
2023-04-29T14:43:46.636Z,39.76
2023-04-29T14:46:14.236Z,39.57
2023-04-29T14:48:41.685Z,38.95
2023-04-29T14:51:09.631Z,40.26
2023-04-29T14:53:37.102Z,40.75
2023-04-29T14:56:04.842Z,42.24
2023-04-29T14:58:32.294Z,41.89
2023-04-29T15:00:59.712Z,42.03
2023-04-29T15:03:27.242Z,43.33
2023-04-29T15:05:54.993Z,44.32
2023-04-29T15:08:22.958Z,43.23
2023-04-29T15:10:50.754Z,44.52
2023-04-29T15:13:18.296Z,44.07
2023-04-29T15:15:45.826Z,43.72
2023-04-29T15:18:13.336Z,43.58
2023-04-29T15:20:40.724Z,43.80
2023-04-29T15:23:08.756Z,44.62
2023-04-29T15:25:36.595Z,44.29
2023-04-29T15:28:04.830Z,43.27
2023-04-29T15:30:32.746Z,43.83
2023-04-29T15:33:00.470Z,43.98
2023-04-29T15:35:28.124Z,43.92
2023-04-29T15:37:56.376Z,44.79
2023-04-29T15:40:23.889Z,44.98
2023-04-29T15:42:51.334Z,43.75
2023-04-29T15:45:20.480Z,43.68
2023-04-29T15:47:47.958Z,43.42
2023-04-29T15:50:15.480Z,43.60
2023-04-29T15:52:42.909Z,43.42
2023-04-29T15:55:10.404Z,43.52
2023-04-29T15:57:41.136Z,41.63
2023-04-29T16:00:09.534Z,41.27
2023-04-29T16:02:37.088Z,41.21
2023-04-29T16:05:04.837Z,40.95
2023-04-29T16:07:33.626Z,41.00
2023-04-29T16:10:02.261Z,42.12
2023-04-29T16:12:29.714Z,41.56
2023-04-29T16:14:57.088Z,42.01
2023-04-29T16:17:24.474Z,42.71
2023-04-29T16:19:52.235Z,42.49
2023-04-29T16:22:19.831Z,43.45
2023-04-29T16:24:49.311Z,43.98
2023-04-29T16:27:17.708Z,43.92
2023-04-29T16:29:45.127Z,42.84
2023-04-29T16:32:12.599Z,43.63
2023-04-29T16:34:39.973Z,43.92
2023-04-29T16:37:12.334Z,46.57
2023-04-29T16:39:40.315Z,45.94
2023-04-29T16:42:07.992Z,46.45
2023-04-29T16:44:35.350Z,46.40
2023-04-29T16:47:03.069Z,46.05
2023-04-29T16:49:31.396Z,47.76
2023-04-29T16:51:58.863Z,48.44
2023-04-29T16:54:26.417Z,47.65
2023-04-29T16:56:53.774Z,48.89
2023-04-29T16:59:21.517Z,50.22
2023-04-29T17:01:49.066Z,50.16
2023-04-29T17:04:16.583Z,50.47
2023-04-29T17:06:44.109Z,50.81
2023-04-29T17:09:11.579Z,51.04
2023-04-29T17:11:39.053Z,52.58
2023-04-29T17:14:06.640Z,52.73
2023-04-29T17:16:34.179Z,51.64
2023-04-29T17:19:01.606Z,52.02
2023-04-29T17:21:30.560Z,51.84
2023-04-29T17:23:58.878Z,52.94
2023-04-29T17:26:26.464Z,53.29
2023-04-29T17:28:54.090Z,54.91
2023-04-29T17:31:25.321Z,54.76
2023-04-29T17:34:05.087Z,55.06
2023-04-29T17:36:33.615Z,56.38
2023-04-29T17:39:01.041Z,57.16
2023-04-29T17:41:28.472Z,57.65
2023-04-29T17:43:55.921Z,57.74
2023-04-29T17:46:23.419Z,57.74
2023-04-29T17:48:50.869Z,57.31
2023-04-29T17:51:18.294Z,57.53
2023-04-29T17:53:45.710Z,60.75
2023-04-29T17:56:13.134Z,61.65
2023-04-29T17:58:40.724Z,63.13
2023-04-29T18:01:08.273Z,64.28
2023-04-29T18:03:35.827Z,66.65
2023-04-29T18:06:03.305Z,70.39
2023-04-29T18:08:30.778Z,73.58
2023-04-29T18:10:58.215Z,75.18
2023-04-29T18:13:27.263Z,79.29
2023-04-29T18:15:55.018Z,80.09
2023-04-29T18:18:22.451Z,80.68
2023-04-29T18:20:49.884Z,81.57
2023-04-29T18:23:17.315Z,81.40
2023-04-29T18:25:44.755Z,81.67
2023-04-29T18:28:23.591Z,79.98
2023-04-29T18:30:52.865Z,77.94
2023-04-29T18:33:20.412Z,76.26
2023-04-29T18:35:47.900Z,74.14
2023-04-29T18:38:17.324Z,72.71
2023-04-29T18:40:45.165Z,74.06
2023-04-29T18:43:17.152Z,73.79
2023-04-29T18:45:47.761Z,74.29
2023-04-29T18:48:15.339Z,73.71
2023-04-29T18:50:42.861Z,72.78
2023-04-29T18:53:10.503Z,73.31
2023-04-29T18:55:37.882Z,72.83
2023-04-29T18:58:05.574Z,73.94
2023-04-29T19:00:33.094Z,75.28
2023-04-29T19:03:00.596Z,75.45
2023-04-29T19:05:28.098Z,75.94
2023-04-29T19:07:55.545Z,76.00
2023-04-29T19:10:22.926Z,76.64
2023-04-29T19:12:50.600Z,78.30
2023-04-29T19:15:18.102Z,78.83
2023-04-29T19:17:45.572Z,79.87
2023-04-29T19:20:13.178Z,80.29
2023-04-29T19:22:40.657Z,80.75
2023-04-29T19:25:08.266Z,81.11
2023-04-29T19:27:35.706Z,81.00
2023-04-29T19:30:03.148Z,81.82
2023-04-29T19:32:30.702Z,82.72
2023-04-29T19:34:58.195Z,83.04
2023-04-29T19:37:26.129Z,84.66
2023-04-29T19:39:53.884Z,84.94
2023-04-29T19:42:21.586Z,86.66
2023-04-29T19:44:48.944Z,88.72
2023-04-29T19:47:16.400Z,90.58
2023-04-29T19:49:43.825Z,90.63
2023-04-29T19:52:11.171Z,90.95
2023-04-29T19:54:40.698Z,93.05
2023-04-29T19:57:08.097Z,93.46
2023-04-29T19:59:35.510Z,94.95
2023-04-29T20:02:02.945Z,94.91
2023-04-29T20:04:30.409Z,96.49
2023-04-29T20:06:57.890Z,95.87
2023-04-29T20:09:26.464Z,95.57
2023-04-29T20:11:53.966Z,96.09
2023-04-29T20:14:21.545Z,96.26
2023-04-29T20:16:49.126Z,95.60
2023-04-29T20:19:16.658Z,96.44
2023-04-29T20:21:44.023Z,97.20
2023-04-29T20:24:11.399Z,97.06
2023-04-29T20:26:38.786Z,97.10
2023-04-29T20:29:06.263Z,98.32
2023-04-29T20:31:33.737Z,98.48
2023-04-29T20:34:01.347Z,98.82
2023-04-29T20:36:29.383Z,100.00
2023-04-29T20:38:57.252Z,100.00
2023-04-29T20:41:27.523Z,100.00
2023-04-29T20:43:55.106Z,100.00
2023-04-29T20:46:25.310Z,100.00
2023-04-29T20:48:53.578Z,100.00
2023-04-29T20:51:21.011Z,100.00
2023-04-29T20:53:48.730Z,100.00
2023-04-29T20:56:16.218Z,100.00
2023-04-29T20:58:43.578Z,100.00
2023-04-29T21:01:11.145Z,100.00
2023-04-29T21:03:38.574Z,100.00
2023-04-29T21:06:05.997Z,100.00
2023-04-29T21:08:33.466Z,100.00
2023-04-29T21:11:01.550Z,100.00
2023-04-29T21:13:28.930Z,100.00
2023-04-29T21:15:56.310Z,100.00
2023-04-29T21:18:23.925Z,100.00
2023-04-29T21:20:51.295Z,100.00
2023-04-29T21:23:18.658Z,100.00
2023-04-29T21:25:46.160Z,100.00
2023-04-29T21:28:14.362Z,100.00
2023-04-29T21:30:43.656Z,100.00
2023-04-29T21:33:11.111Z,100.00
2023-04-29T21:35:39.814Z,100.00
2023-04-29T21:38:07.357Z,100.00
2023-04-29T21:40:34.870Z,100.00
2023-04-29T21:43:02.615Z,100.00
2023-04-29T21:45:30.323Z,100.00
2023-04-29T21:48:03.647Z,100.00
2023-04-29T21:50:31.388Z,100.00
2023-04-29T21:52:58.831Z,100.00
2023-04-29T21:55:26.211Z,100.00
2023-04-29T21:57:53.634Z,100.00
2023-04-29T22:00:32.891Z,100.00
2023-04-29T22:03:01.247Z,100.00
2023-04-29T22:05:28.703Z,100.00
2023-04-29T22:07:58.102Z,100.00
2023-04-29T22:10:25.913Z,100.00
2023-04-29T22:12:53.434Z,100.00
2023-04-29T22:15:28.558Z,100.00
2023-04-29T22:17:57.361Z,100.00
2023-04-29T22:20:25.332Z,100.00
2023-04-29T22:22:53.070Z,100.00
2023-04-29T22:25:21.839Z,100.00
2023-04-29T22:27:49.855Z,100.00
2023-04-29T22:30:18.019Z,100.00
2023-04-29T22:32:45.717Z,100.00
2023-04-29T22:35:13.209Z,100.00
2023-04-29T22:37:40.933Z,100.00
2023-04-29T22:40:08.700Z,100.00
2023-04-29T22:42:36.128Z,100.00
2023-04-29T22:45:03.554Z,100.00
2023-04-29T22:47:31.202Z,100.00
2023-04-29T22:49:58.656Z,100.00
2023-04-29T22:52:27.445Z,100.00
2023-04-29T22:54:54.916Z,100.00
2023-04-29T22:57:22.351Z,100.00
2023-04-29T22:59:49.934Z,100.00
2023-04-29T23:02:17.354Z,100.00
2023-04-29T23:04:44.782Z,100.00
2023-04-29T23:07:12.298Z,100.00
2023-04-29T23:09:39.767Z,100.00
2023-04-29T23:12:07.227Z,100.00
2023-04-29T23:14:34.626Z,100.00
2023-04-29T23:17:02.026Z,100.00
2023-04-29T23:19:29.400Z,100.00
2023-04-29T23:21:56.820Z,100.00
2023-04-29T23:24:24.387Z,100.00
2023-04-29T23:26:51.856Z,100.00
2023-04-29T23:29:19.412Z,100.00
2023-04-29T23:31:46.891Z,100.00
2023-04-29T23:34:16.469Z,100.00
2023-04-29T23:36:43.834Z,100.00
2023-04-29T23:39:11.249Z,100.00
2023-04-29T23:41:38.678Z,100.00
2023-04-29T23:44:06.108Z,100.00
2023-04-29T23:46:33.581Z,100.00
2023-04-29T23:49:01.668Z,100.00
2023-04-29T23:51:29.030Z,100.00
2023-04-29T23:53:56.451Z,100.00
2023-04-29T23:56:25.747Z,100.00
2023-04-29T23:58:53.372Z,100.00
